KSBDKHAF

Guest
Details From KSBD - San Bernardino Intl
To KHAF - HALF MOON BAY
Flight Number -
Tags generated
Created
Modified
Stats Distance 331 nm / 612 km
Max Altitude 34,000 ft / 10,363 m
Waypoints 7
Social Downloads 1
Likes 0
Share VATSIM

Download

Looking for another format? Having issues loading an existing format? Contact us
Advertisement - Login to hide

Notes

Basic altitude profile: - Ascent Rate: 2500ft/min - Ascent Speed: 250kts - Cruise Altitude: 25000ft - Cruise Speed: 420kts - Descent Rate: 1500ft/min - Descent Speed: 250kts Options: - Use NATs: yes - Use PACOTS: yes - Use low airways: yes - Use high airways: yes

Route

KSBD LANDO J6 AVE V137 ROM V485 RANCK KHAF

ID Type Via Altitude Latitude Longitude Leg Dist Tot Dist Heading (true) Name
O KSBD APT - 0 ft / 0 m 34.09534˚ -117.23487˚ - 0 nm - San Bernardino Intl
LANDO FIX - 30,300 ft / 9,235 m 35.01243˚ -118.61637˚ 87 nm 87 nm 309° / 308° -
AVE VOR J6 (AWY-HI) 34,000 ft / 10,363 m 35.64697˚ -119.97861˚ 76 nm 164 nm 300° / 299° AVENAL VORTAC
OKEEF FIX V137 (AWY-LO) 18,000 ft / 5,486 m 36.06500˚ -120.55917˚ 37 nm 202 nm 312° / 311° -
ROM VOR V137 (AWY-LO) 18,000 ft / 5,486 m 36.14039˚ -120.66492˚ 6 nm 209 nm 311° / 311° PRIEST VOR
RANCK FIX V485 (AWY-LO) 18,000 ft / 5,486 m 36.59164˚ -121.10288˚ 34 nm 243 nm 322° / 322° -
O KHAF APT - 0 ft / 0 m 37.51343˚ -122.50116˚ 86 nm 330 nm 310° / 309° HALF MOON BAY

Altitude Profile

Advertisement - Login to hide

Weather


0- 5 10 15 20 25 30 35+ Temperature / ° C

Clouds and Precipitation
Forecast for 2017-12-17 06:00 UTC. Updated 41 minutes ago

Ground ~20,000 ft ~40,000 ft Winds

KSBD

Details ICAO KSBD (SBD)
Name San Bernardino Intl
Region United States
Timezone America/Los_Angeles (UTC-8.0)
Stats Elevation 1,157 ft / 353 m (AMSL)
Location 34.095343° -117.234869°
Runways 1
Magnetic Variation 11.791° E

METAR

KSBD 170600Z AUTO 01011G17KT 10SM CLR 17/M03 A2980 RMK AO2 T01681032

Decode

TAF

TAF KSBD 170520Z 1706/1806 VRB06KT P6SM SKC WS010/03035KT FM170800 03015G25KT P6SM SKC FM180400 VRB06KT P6SM SKC WS010/04025KT

Decode

Departure Runways

ID Width Length Bearing (true) Bearing (mag) Surface Threshold Offset Overrun Length
06 180 ft / 55 m 9,963 ft / 3,037 m 70.26° 58.47° Asphalt 0 ft / 0 m 1,000 ft / 305 m
24 180 ft / 55 m 9,963 ft / 3,037 m 250.27° 238.48° Asphalt 0 ft / 0 m 1,000 ft / 305 m

KHAF

Details ICAO KHAF
Name HALF MOON BAY
Region United States
Timezone America/Los_Angeles (UTC-8.0)
Stats Elevation 66 ft / 20 m (AMSL)
Location 37.513435° -122.501163°
Runways 1
Magnetic Variation 13.459° E

METAR

KHAF 170555Z AUTO 33010KT 6SM HZ FEW003 12/07 A2995 RMK AO2

Decode

TAF

Not found

Destination Runways

ID Width Length Bearing (true) Bearing (mag) Surface Threshold Offset Overrun Length
12 151 ft / 46 m 5,005 ft / 1,525 m 137.06° 123.60° Asphalt 764 ft / 233 m 0 ft / 0 m
30 151 ft / 46 m 5,005 ft / 1,525 m 317.06° 303.60° Asphalt 764 ft / 233 m 0 ft / 0 m